Buoy 44843

sailwx.info

Track history (hours):
 
Tides and Currents Weather Stations Pressure Air Temp Water Temp Dewpoint Dewpoint Depression Visibility Wind Speed Wind Dir Waves Ship Positions

Drifting buoy 44843

Last reported at 2017-Dec-11 16:15 UTC. Time now 2017-Dec-12 17:54 UTC.
Position N 31°20' W 072°55'.

Date/timePositionNaut miles runAvg speedWind from/ knotsBaromVisibWave heightAir tempDewpointWater temp
2017-Dec-11 16:15N 31°20' W 072°55'0 0.0
2017-Dec-11 15:45N 31°20' W 072°55'1 3.2
2017-Dec-11 15:30N 31°21' W 072°56'1 1.4
2017-Dec-11 14:45N 31°21' W 072°55'0 0.0
2017-Dec-11 14:30N 31°21' W 072°55'0 0.0
2017-Dec-11 14:00N 31°21' W 072°55'0 0.0
2017-Dec-11 13:45N 31°21' W 072°55'1 0.8
2017-Dec-11 13:00N 31°22' W 072°55'0 0.0
2017-Dec-11 12:45N 31°22' W 072°55'0 0.0
2017-Dec-11 12:00N 31°22' W 072°55'1 0.8
2017-Dec-11 11:15N 31°22' W 072°55'0 0.0
2017-Dec-11 10:30N 31°22' W 072°55'0 0.0
2017-Dec-11 10:15N 31°22' W 072°55'1 2.4
2017-Dec-11 10:00N 31°23' W 072°55'0 0.0
2017-Dec-11 09:00N 31°23' W 072°55'1 2.0
2017-Dec-11 08:45N 31°23' W 072°55'1 2.4
2017-Dec-11 08:30N 31°23' W 072°55'1 5.2
2017-Dec-11 08:15N 31°25' W 072°56'0 0.0
2017-Dec-11 03:15N 31°25' W 072°56'0 0.0
2017-Dec-11 02:30N 31°25' W 072°56'1 2.4
2017-Dec-11 02:15N 31°25' W 072°56'1 0.7
2017-Dec-11 01:30N 31°25' W 072°55'0 0.0
2017-Dec-11 01:00N 31°25' W 072°55'1 2.4
2017-Dec-11 00:45N 31°25' W 072°55'0 0.0
2017-Dec-11 00:30N 31°25' W 072°55'1 0.8
2017-Dec-10 23:45N 31°25' W 072°55'0 0.0
2017-Dec-10 23:30N 31°25' W 072°55'0 0.0
2017-Dec-10 23:15N 31°25' W 072°55'0 0.0
2017-Dec-10 23:00N 31°25' W 072°55'1 4.1
2017-Dec-10 22:45N 31°25' W 072°56'0 0.0
2017-Dec-10 22:00N 31°25' W 072°56'1 3.2
2017-Dec-10 21:45N 31°26' W 072°56'1 4.7
2017-Dec-10 21:30N 31°25' W 072°57'0 0.0
2017-Dec-10 20:00N 31°25' W 072°57'1 5.2
2017-Dec-10 19:45N 31°26' W 072°56'0 0.0
2017-Dec-10 18:15N 31°26' W 072°56'1 0.2
2017-Dec-10 16:00N 31°26' W 072°56'0 0.0
2017-Dec-10 15:45N 31°26' W 072°56'1 0.8
2017-Dec-10 15:00N 31°27' W 072°56'1 0.7
2017-Dec-10 14:15N 31°27' W 072°56'1 0.7
2017-Dec-10 13:30N 31°27' W 072°56'0 0.0
2017-Dec-10 13:15N 31°27' W 072°56'1 2.4
2017-Dec-10 13:00N 31°28' W 072°56'0 0.0
2017-Dec-10 12:30N 31°28' W 072°56'0 0.0
2017-Dec-10 12:15N 31°28' W 072°56'1 1.7
2017-Dec-10 11:30N 31°29' W 072°56'0 0.0
2017-Dec-10 11:15N 31°29' W 072°56'0 0.0
2017-Dec-10 10:45N 31°29' W 072°56'1 1.6
2017-Dec-10 10:15N 31°29' W 072°56'0 0.0
2017-Dec-10 10:00N 31°29' W 072°56'1 1.6
2017-Dec-10 09:30N 31°30' W 072°55'2 6.6
2017-Dec-10 09:15N 31°31' W 072°57'3 4.2
2017-Dec-10 08:30N 31°32' W 073°00'0 0.0
2017-Dec-10 02:45N 31°32' W 073°00'0 0.0
2017-Dec-10 02:30N 31°32' W 073°00'1 1.6
2017-Dec-10 02:00N 31°33' W 073°01'0 0.0
2017-Dec-10 01:45N 31°33' W 073°01'1 1.1
2017-Dec-10 01:00N 31°34' W 073°01'1 4.1
2017-Dec-10 00:45N 31°34' W 073°02'0 0.0
2017-Dec-10 00:30N 31°34' W 073°02'0 0.0
2017-Dec-10 00:15N 31°34' W 073°02'1 2.0
2017-Dec-10 00:00N 31°34' W 073°02'1 4.1
2017-Dec-09 23:45N 31°34' W 073°03'0 0.0
2017-Dec-09 23:15N 31°34' W 073°03'1 2.0
2017-Dec-09 23:00N 31°34' W 073°04'0 0.0
2017-Dec-09 22:30N 31°34' W 073°04'1 2.0
2017-Dec-09 22:15N 31°34' W 073°03'0 0.0
2017-Dec-09 22:00N 31°34' W 073°03'1 4.8
2017-Dec-09 21:45N 31°32' W 073°03'0 0.0
2017-Dec-09 20:15N 31°32' W 073°03'2 6.6
2017-Dec-09 20:00N 31°32' W 073°05'2 1.6
2017-Dec-09 18:30N 31°29' W 073°05'2 9.6
2017-Dec-09 18:15N 31°32' W 073°05'2 1.2
2017-Dec-09 16:15N 31°29' W 073°05'0 0.0
2017-Dec-09 15:30N 31°29' W 073°05'0 0.0
2017-Dec-09 15:15N 31°29' W 073°05'1 1.2
2017-Dec-09 14:45N 31°29' W 073°05'0 0.0
2017-Dec-09 14:30N 31°29' W 073°05'0 0.0
2017-Dec-09 13:45N 31°29' W 073°05'0 0.0
2017-Dec-09 13:30N 31°29' W 073°05'1 2.4
2017-Dec-09 13:15N 31°28' W 073°05'0 0.0
2017-Dec-09 13:00N 31°28' W 073°05'0 0.0
2017-Dec-09 12:45N 31°28' W 073°05'0 0.0
2017-Dec-09 11:45N 31°28' W 073°05'1 3.2
2017-Dec-09 11:30N 31°28' W 073°05'1 3.2
2017-Dec-09 11:15N 31°28' W 073°05'0 0.0
2017-Dec-09 11:00N 31°28' W 073°05'1 1.2
2017-Dec-09 10:30N 31°28' W 073°05'1 2.0
2017-Dec-09 10:15N 31°28' W 073°04'0 0.0
2017-Dec-09 10:00N 31°28' W 073°04'2 7.5
2017-Dec-09 09:45N 31°26' W 073°05'0 0.0
2017-Dec-09 08:45N 31°26' W 073°05'0 0.0
2017-Dec-09 08:30N 31°26' W 073°05'0 0.0
2017-Dec-09 07:00N 31°26' W 073°05'1 0.2
2017-Dec-09 03:00N 31°26' W 073°05'0 0.0
2017-Dec-09 02:15N 31°26' W 073°05'0 0.0
2017-Dec-09 01:30N 31°26' W 073°05'1 2.0
2017-Dec-09 01:15N 31°26' W 073°05'0 0.0
2017-Dec-09 01:00N 31°26' W 073°05'0 0.0
2017-Dec-09 00:45N 31°26' W 073°05'1 2.4
2017-Dec-09 00:30N 31°27' W 073°05'0 0.0
2017-Dec-09 00:15N 31°27' W 073°05'1 0.8
2017-Dec-08 23:15N 31°26' W 073°06'1 1.6
2017-Dec-08 22:45N 31°27' W 073°07'0 0.0
2017-Dec-08 22:30N 31°27' W 073°07'1 1.0
2017-Dec-08 21:15N 31°26' W 073°07'1 1.2
2017-Dec-08 20:15N 31°25' W 073°08'0 0.0
2017-Dec-08 18:45N 31°25' W 073°08'1 2.0
2017-Dec-08 18:30N 31°25' W 073°08'1 0.2
2017-Dec-08 15:45N 31°25' W 073°09'0 0.0
2017-Dec-08 15:00N 31°25' W 073°09'0 0.0
2017-Dec-08 14:45N 31°25' W 073°09'1 1.1
2017-Dec-08 14:00N 31°26' W 073°10'1 4.8
2017-Dec-08 13:45N 31°25' W 073°10'0 0.0
2017-Dec-08 13:15N 31°25' W 073°10'0 0.0
2017-Dec-08 12:00N 31°25' W 073°10'0 0.0
2017-Dec-08 11:45N 31°25' W 073°10'0 0.0
2017-Dec-08 11:30N 31°25' W 073°10'0 0.0
2017-Dec-08 10:30N 31°25' W 073°10'0 0.0
2017-Dec-08 10:15N 31°25' W 073°10'0 0.0
2017-Dec-08 10:00N 31°25' W 073°10'0 0.0
2017-Dec-08 09:45N 31°25' W 073°10'0 0.0
2017-Dec-08 09:00N 31°25' W 073°10'1 2.0
2017-Dec-08 08:45N 31°25' W 073°10'2 1.3
2017-Dec-08 07:15N 31°26' W 073°12'0 0.0
2017-Dec-08 03:30N 31°26' W 073°12'1 3.2
2017-Dec-08 03:15N 31°26' W 073°11'0 0.0
2017-Dec-08 02:45N 31°26' W 073°11'1 2.4
2017-Dec-08 02:30N 31°27' W 073°11'1 1.6
2017-Dec-08 01:45N 31°28' W 073°10'1 4.7
2017-Dec-08 01:30N 31°28' W 073°11'0 0.0
2017-Dec-08 01:15N 31°28' W 073°11'2 7.2
2017-Dec-08 01:00N 31°30' W 073°11'0 0.0
2017-Dec-08 00:45N 31°30' W 073°11'0 0.0
2017-Dec-08 00:00N 31°30' W 073°11'1 1.0
2017-Dec-07 23:30N 31°30' W 073°12'1 2.0
2017-Dec-07 23:15N 31°30' W 073°11'0 0.0
2017-Dec-07 23:00N 31°30' W 073°11'2 1.3
2017-Dec-07 21:45N 31°31' W 073°13'1 4.7
2017-Dec-07 21:30N 31°32' W 073°14'0 0.0
2017-Dec-07 20:30N 31°32' W 073°14'0 0.0
2017-Dec-07 20:15N 31°32' W 073°14'4 2.8
2017-Dec-07 18:45N 31°32' W 073°19'1 0.2
2017-Dec-07 16:00N 31°32' W 073°19'0 0.0
2017-Dec-07 15:30N 31°32' W 073°19'1 4.7
2017-Dec-07 15:15N 31°31' W 073°20'0 0.0
2017-Dec-07 14:30N 31°31' W 073°20'0 0.0
2017-Dec-07 14:15N 31°31' W 073°20'2 3.3
2017-Dec-07 13:45N 31°31' W 073°22'0 0.0
2017-Dec-07 13:30N 31°31' W 073°22'0 0.0
2017-Dec-07 12:15N 31°31' W 073°22'1 4.7
2017-Dec-07 12:00N 31°30' W 073°23'0 0.0
2017-Dec-07 11:00N 31°30' W 073°23'0 0.0
2017-Dec-07 10:45N 31°30' W 073°23'0 0.0
2017-Dec-07 10:30N 31°30' W 073°23'0 0.0
2017-Dec-07 10:15N 31°30' W 073°23'1 1.2
2017-Dec-07 09:15N 31°29' W 073°24'1 2.0
2017-Dec-07 09:00N 31°29' W 073°25'3 2.1
2017-Dec-07 07:30N 31°28' W 073°28'0 0.0
2017-Dec-07 07:15N 31°28' W 073°28'0 0.0
2017-Dec-07 03:00N 31°28' W 073°28'0 0.0
2017-Dec-07 02:45N 31°28' W 073°28'1 1.6
2017-Dec-07 02:00N 31°27' W 073°29'0 0.0
2017-Dec-07 01:15N 31°27' W 073°29'1 0.7
2017-Dec-07 00:30N 31°27' W 073°28'1 4.7
2017-Dec-07 00:15N 31°26' W 073°29'0 0.0
2017-Dec-06 23:45N 31°26' W 073°29'1 3.2
2017-Dec-06 23:30N 31°26' W 073°30'0 0.0
2017-Dec-06 22:15N 31°26' W 073°30'0 0.0
2017-Dec-06 22:00N 31°26' W 073°30'2 1.5
2017-Dec-06 20:45N 31°24' W 073°31'0 0.0
2017-Dec-06 20:30N 31°24' W 073°31'1 0.5
2017-Dec-06 19:00N 31°23' W 073°31'3 1.2
2017-Dec-06 16:30N 31°20' W 073°31'1 1.6
2017-Dec-06 15:45N 31°20' W 073°30'0 0.0
2017-Dec-06 15:30N 31°20' W 073°30'1 0.8
2017-Dec-06 14:45N 31°19' W 073°30'1 1.4
2017-Dec-06 14:00N 31°19' W 073°29'0 0.0
2017-Dec-06 13:45N 31°19' W 073°29'0 0.0
2017-Dec-06 13:00N 31°19' W 073°29'1 1.6
2017-Dec-06 12:30N 31°19' W 073°29'1 4.8
2017-Dec-06 12:15N 31°17' W 073°29'0 0.0
2017-Dec-06 11:30N 31°17' W 073°29'0 0.0
2017-Dec-06 11:15N 31°17' W 073°29'1 1.0
2017-Dec-06 10:45N 31°17' W 073°29'1 0.8
2017-Dec-06 10:00N 31°17' W 073°29'0 0.0
2017-Dec-06 09:45N 31°17' W 073°29'0 0.0
2017-Dec-06 09:30N 31°17' W 073°29'1 4.8
2017-Dec-06 09:15N 31°16' W 073°29'0 0.0
2017-Dec-06 07:45N 31°16' W 073°29'0 0.0
2017-Dec-06 07:30N 31°16' W 073°29'4 0.9
2017-Dec-06 03:15N 31°12' W 073°28'0 0.0
2017-Dec-06 02:30N 31°12' W 073°28'1 2.4
2017-Dec-06 02:15N 31°11' W 073°28'0 0.0
2017-Dec-06 01:45N 31°11' W 073°28'1 4.8
2017-Dec-06 01:30N 31°11' W 073°27'1 1.4
2017-Dec-06 00:45N 31°11' W 073°28'0 0.0
2017-Dec-06 00:30N 31°11' W 073°28'2 8.3
2017-Dec-06 00:15N 31°09' W 073°27'0 0.0
2017-Dec-06 00:00N 31°09' W 073°27'0 0.0
2017-Dec-05 23:45N 31°09' W 073°27'0 0.0
2017-Dec-05 22:45N 31°09' W 073°27'2 7.5
2017-Dec-05 22:30N 31°07' W 073°26'0 0.0
2017-Dec-05 22:15N 31°07' W 073°26'0 0.0
2017-Dec-05 22:00N 31°07' W 073°26'0 0.0
2017-Dec-05 21:00N 31°07' W 073°26'0 0.0
2017-Dec-05 20:45N 31°07' W 073°26'4 2.9
2017-Dec-05 19:15N 31°04' W 073°23'0 0.0
2017-Dec-05 19:00N 31°04' W 073°23'1 0.4
2017-Dec-05 16:00N 31°03' W 073°22'0 0.0
2017-Dec-05 15:00N 31°03' W 073°22'0 0.0
2017-Dec-05 14:30N 31°03' W 073°22'1 3.2
2017-Dec-05 14:15N 31°04' W 073°22'1 4.8
2017-Dec-05 14:00N 31°02' W 073°22'0 0.0
2017-Dec-05 13:30N 31°02' W 073°22'0 0.0
2017-Dec-05 13:15N 31°02' W 073°22'1 2.1
2017-Dec-05 13:00N 31°02' W 073°21'0 0.0
2017-Dec-05 12:45N 31°02' W 073°21'1 2.1
2017-Dec-05 12:30N 31°02' W 073°22'2 6.3
2017-Dec-05 12:15N 31°01' W 073°20'0 0.0
2017-Dec-05 12:00N 31°01' W 073°20'0 0.0
2017-Dec-05 11:15N 31°01' W 073°20'0 0.0
2017-Dec-05 11:00N 31°01' W 073°20'1 2.1
2017-Dec-05 10:45N 31°01' W 073°20'1 3.2
2017-Dec-05 10:30N 31°01' W 073°19'0 0.0
2017-Dec-05 10:15N 31°01' W 073°19'1 0.7
2017-Dec-05 09:30N 31°01' W 073°19'0 0.0
2017-Dec-05 08:45N 31°01' W 073°19'0 0.0
2017-Dec-05 08:00N 31°01' W 073°19'311.4
2017-Dec-05 07:45N 30°58' W 073°17'0 0.0
2017-Dec-05 03:30N 30°58' W 073°17'1 1.4
2017-Dec-05 02:45N 30°58' W 073°16'0 0.0
2017-Dec-05 02:30N 30°58' W 073°16'0 0.0
2017-Dec-05 02:00N 30°58' W 073°16'0 0.0
2017-Dec-05 01:45N 30°58' W 073°16'1 1.6
2017-Dec-05 01:15N 30°58' W 073°15'1 2.1
2017-Dec-05 01:00N 30°58' W 073°14'0 0.0
2017-Dec-05 00:45N 30°58' W 073°14'0 0.0
2017-Dec-05 00:30N 30°58' W 073°14'0 0.0
2017-Dec-05 00:15N 30°58' W 073°14'1 3.2
2017-Dec-05 00:00N 30°57' W 073°14'0 0.0
2017-Dec-04 23:15N 30°57' W 073°14'0 0.0
2017-Dec-04 23:00N 30°57' W 073°14'1 2.1
2017-Dec-04 22:45N 30°57' W 073°13'0 0.0
2017-Dec-04 22:30N 30°57' W 073°13'1 2.1
2017-Dec-04 22:15N 30°57' W 073°13'0 0.0
2017-Dec-04 21:30N 30°57' W 073°13'0 0.0
2017-Dec-04 21:15N 30°57' W 073°13'0 0.0
2017-Dec-04 21:00N 30°57' W 073°13'1 0.3
2017-Dec-04 19:30N 30°57' W 073°12'1 4.1
2017-Dec-04 19:15N 30°57' W 073°11'0 0.0
2017-Dec-04 16:30N 30°57' W 073°11'1 2.1
2017-Dec-04 16:15N 30°57' W 073°11'1 0.7
2017-Dec-04 15:30N 30°57' W 073°11'0 0.0
2017-Dec-04 14:45N 30°57' W 073°11'0 0.0
2017-Dec-04 14:30N 30°57' W 073°11'0 0.0
2017-Dec-04 14:15N 30°57' W 073°11'0 0.0
2017-Dec-04 13:45N 30°57' W 073°11'0 0.0
2017-Dec-04 13:00N 30°57' W 073°11'0 0.0
2017-Dec-04 12:45N 30°57' W 073°11'0 0.0
2017-Dec-04 12:30N 30°57' W 073°11'0 0.0
2017-Dec-04 11:45N 30°57' W 073°11'0 0.0
2017-Dec-04 11:30N 30°57' W 073°11'0 0.0
2017-Dec-04 11:00N 30°57' W 073°11'0 0.0
2017-Dec-04 10:45N 30°57' W 073°11'0 0.0
2017-Dec-04 10:00N 30°57' W 073°11'1 2.1
2017-Dec-04 09:45N 30°57' W 073°11'0 0.0
2017-Dec-04 09:30N 30°57' W 073°11'1 4.1
2017-Dec-04 09:15N 30°57' W 073°10'1 4.1
2017-Dec-04 09:00N 30°57' W 073°11'2 2.0
2017-Dec-04 08:00N 30°56' W 073°13'1 0.1
2017-Dec-04 03:00N 30°56' W 073°13'0 0.0
2017-Dec-04 02:30N 30°56' W 073°13'0 0.0
2017-Dec-04 02:15N 30°56' W 073°13'0 0.0
2017-Dec-04 01:30N 30°56' W 073°13'0 0.0
2017-Dec-04 01:15N 30°56' W 073°13'0 0.0
2017-Dec-04 00:45N 30°56' W 073°13'1 2.4
2017-Dec-04 00:30N 30°55' W 073°13'0 0.0
2017-Dec-04 00:15N 30°55' W 073°13'1 2.1
2017-Dec-04 00:00N 30°55' W 073°13'0 0.0
2017-Dec-03 23:45N 30°55' W 073°13'0 0.0
2017-Dec-03 23:15N 30°55' W 073°13'1 1.1
2017-Dec-03 22:30N 30°55' W 073°13'0 0.0
2017-Dec-03 22:00N 30°55' W 073°13'0 0.0
2017-Dec-03 21:15N 30°55' W 073°13'1 0.4
2017-Dec-03 19:45N 30°54' W 073°13'0 0.0
2017-Dec-03 19:30N 30°54' W 073°13'1 0.2
2017-Dec-03 15:45N 30°53' W 073°13'0 0.0
2017-Dec-03 15:00N 30°53' W 073°13'0 0.0
2017-Dec-03 14:15N 30°53' W 073°13'1 4.8
2017-Dec-03 14:00N 30°53' W 073°14'0 0.0
2017-Dec-03 13:30N 30°53' W 073°14'0 0.0
2017-Dec-03 13:15N 30°53' W 073°14'0 0.0
2017-Dec-03 13:00N 30°53' W 073°14'1 4.1
2017-Dec-03 12:45N 30°53' W 073°15'0 0.0
2017-Dec-03 12:00N 30°53' W 073°15'1 1.6
2017-Dec-03 11:30N 30°52' W 073°16'0 0.0
2017-Dec-03 11:15N 30°52' W 073°16'0 0.0
2017-Dec-03 11:00N 30°52' W 073°16'0 0.0
2017-Dec-03 10:30N 30°52' W 073°16'1 2.4
2017-Dec-03 10:15N 30°52' W 073°16'0 0.0
2017-Dec-03 10:00N 30°52' W 073°16'1 3.2
2017-Dec-03 09:45N 30°51' W 073°16'0 0.0
2017-Dec-03 09:30N 30°51' W 073°16'0 0.0
2017-Dec-03 08:15N 30°51' W 073°16'2 7.2
2017-Dec-03 08:00N 30°49' W 073°16'0 0.0
2017-Dec-03 03:30N 30°49' W 073°16'0 0.0
2017-Dec-03 03:15N 30°49' W 073°16'0 0.0
2017-Dec-03 02:45N 30°49' W 073°16'0 0.0
2017-Dec-03 02:30N 30°49' W 073°16'1 0.8
2017-Dec-03 01:45N 30°49' W 073°16'0 0.0
2017-Dec-03 01:30N 30°49' W 073°16'1 1.0
2017-Dec-03 01:00N 30°49' W 073°16'1 1.2
2017-Dec-03 00:30N 30°48' W 073°16'1 2.4
2017-Dec-03 00:15N 30°49' W 073°16'0 0.0
2017-Dec-03 00:00N 30°49' W 073°16'1 0.4
2017-Dec-02 22:45N 30°49' W 073°15'0 0.0
2017-Dec-02 22:30N 30°49' W 073°15'0 0.0
2017-Dec-02 22:00N 30°49' W 073°15'0 0.0
2017-Dec-02 21:30N 30°49' W 073°15'0 0.0
2017-Dec-02 21:15N 30°49' W 073°15'2 1.0
2017-Dec-02 19:45N 30°49' W 073°13'0 0.0
2017-Dec-02 16:00N 30°49' W 073°13'0 0.0
2017-Dec-02 15:30N 30°49' W 073°13'0 0.0
2017-Dec-02 15:15N 30°49' W 073°13'0 0.0
2017-Dec-02 14:30N 30°49' W 073°13'0 0.0
2017-Dec-02 14:15N 30°49' W 073°13'1 1.0
2017-Dec-02 13:45N 30°49' W 073°13'0 0.0
2017-Dec-02 13:30N 30°49' W 073°13'1 1.0
2017-Dec-02 13:00N 30°49' W 073°13'0 0.0
2017-Dec-02 12:45N 30°49' W 073°13'0 0.0
2017-Dec-02 12:30N 30°49' W 073°13'0 0.0
2017-Dec-02 12:15N 30°49' W 073°13'0 0.0
2017-Dec-02 12:00N 30°49' W 073°13'0 0.0
2017-Dec-02 11:45N 30°49' W 073°13'0 0.0
2017-Dec-02 11:30N 30°49' W 073°13'0 0.0
2017-Dec-02 11:15N 30°49' W 073°13'0 0.0
2017-Dec-02 10:45N 30°49' W 073°13'1 1.0
2017-Dec-02 10:15N 30°49' W 073°13'1 2.1
2017-Dec-02 10:00N 30°49' W 073°13'1 0.5
2017-Dec-02 08:30N 30°48' W 073°13'0 0.0
2017-Dec-02 08:15N 30°48' W 073°13'0 0.0
2017-Dec-02 03:00N 30°48' W 073°13'1 0.7
2017-Dec-02 02:15N 30°48' W 073°13'1 4.1
2017-Dec-02 02:00N 30°48' W 073°12'0 0.0
2017-Dec-02 01:30N 30°48' W 073°12'1 2.1
2017-Dec-02 01:15N 30°48' W 073°11'1 1.0
2017-Dec-02 00:45N 30°48' W 073°11'0 0.0
2017-Dec-02 00:30N 30°48' W 073°11'0 0.0
2017-Dec-02 00:15N 30°48' W 073°11'0 0.0
2017-Dec-02 00:00N 30°48' W 073°11'1 0.5
2017-Dec-01 23:00N 30°48' W 073°10'0 0.0
2017-Dec-01 22:45N 30°48' W 073°10'0 0.0
2017-Dec-01 22:30N 30°48' W 073°10'2 9.5
2017-Dec-01 22:15N 30°49' W 073°08'0 0.0
2017-Dec-01 21:45N 30°49' W 073°08'0 0.0
2017-Dec-01 21:15N 30°49' W 073°08'0 0.0
2017-Dec-01 20:00N 30°49' W 073°08'0 0.0
2017-Dec-01 19:45N 30°49' W 073°08'0 0.0
2017-Dec-01 18:15N 30°49' W 073°08'  
Track history (hours):
 
Tides and Currents Weather Stations Pressure Air Temp Water Temp Dewpoint Dewpoint Depression Visibility Wind Speed Wind Dir Waves Ship Positions

Drifting buoy 44843

Last reported at 2017-Dec-11 16:15 UTC. Time now 2017-Dec-12 17:54 UTC.
Position N 31°20' W 072°55'.

Date/timePositionNaut miles runAvg speedWind from/ knotsBaromVisibWave heightAir tempDewpointWater temp
2017-Dec-11 16:15N 31°20' W 072°55'0 0.0
2017-Dec-11 15:45N 31°20' W 072°55'1 3.2
2017-Dec-11 15:30N 31°21' W 072°56'1 1.4
2017-Dec-11 14:45N 31°21' W 072°55'0 0.0
2017-Dec-11 14:30N 31°21' W 072°55'0 0.0
2017-Dec-11 14:00N 31°21' W 072°55'0 0.0
2017-Dec-11 13:45N 31°21' W 072°55'1 0.8
2017-Dec-11 13:00N 31°22' W 072°55'0 0.0
2017-Dec-11 12:45N 31°22' W 072°55'0 0.0
2017-Dec-11 12:00N 31°22' W 072°55'1 0.8
2017-Dec-11 11:15N 31°22' W 072°55'0 0.0
2017-Dec-11 10:30N 31°22' W 072°55'0 0.0
2017-Dec-11 10:15N 31°22' W 072°55'1 2.4
2017-Dec-11 10:00N 31°23' W 072°55'0 0.0
2017-Dec-11 09:00N 31°23' W 072°55'1 2.0
2017-Dec-11 08:45N 31°23' W 072°55'1 2.4
2017-Dec-11 08:30N 31°23' W 072°55'1 5.2
2017-Dec-11 08:15N 31°25' W 072°56'0 0.0
2017-Dec-11 03:15N 31°25' W 072°56'0 0.0
2017-Dec-11 02:30N 31°25' W 072°56'1 2.4
2017-Dec-11 02:15N 31°25' W 072°56'1 0.7
2017-Dec-11 01:30N 31°25' W 072°55'0 0.0
2017-Dec-11 01:00N 31°25' W 072°55'1 2.4
2017-Dec-11 00:45N 31°25' W 072°55'0 0.0
2017-Dec-11 00:30N 31°25' W 072°55'1 0.8
2017-Dec-10 23:45N 31°25' W 072°55'0 0.0
2017-Dec-10 23:30N 31°25' W 072°55'0 0.0
2017-Dec-10 23:15N 31°25' W 072°55'0 0.0
2017-Dec-10 23:00N 31°25' W 072°55'1 4.1
2017-Dec-10 22:45N 31°25' W 072°56'0 0.0
2017-Dec-10 22:00N 31°25' W 072°56'1 3.2
2017-Dec-10 21:45N 31°26' W 072°56'1 4.7
2017-Dec-10 21:30N 31°25' W 072°57'0 0.0
2017-Dec-10 20:00N 31°25' W 072°57'1 5.2
2017-Dec-10 19:45N 31°26' W 072°56'0 0.0
2017-Dec-10 18:15N 31°26' W 072°56'1 0.2
2017-Dec-10 16:00N 31°26' W 072°56'0 0.0
2017-Dec-10 15:45N 31°26' W 072°56'1 0.8
2017-Dec-10 15:00N 31°27' W 072°56'1 0.7
2017-Dec-10 14:15N 31°27' W 072°56'1 0.7
2017-Dec-10 13:30N 31°27' W 072°56'0 0.0
2017-Dec-10 13:15N 31°27' W 072°56'1 2.4
2017-Dec-10 13:00N 31°28' W 072°56'0 0.0
2017-Dec-10 12:30N 31°28' W 072°56'0 0.0
2017-Dec-10 12:15N 31°28' W 072°56'1 1.7
2017-Dec-10 11:30N 31°29' W 072°56'0 0.0
2017-Dec-10 11:15N 31°29' W 072°56'0 0.0
2017-Dec-10 10:45N 31°29' W 072°56'1 1.6
2017-Dec-10 10:15N 31°29' W 072°56'0 0.0
2017-Dec-10 10:00N 31°29' W 072°56'1 1.6
2017-Dec-10 09:30N 31°30' W 072°55'2 6.6
2017-Dec-10 09:15N 31°31' W 072°57'3 4.2
2017-Dec-10 08:30N 31°32' W 073°00'0 0.0
2017-Dec-10 02:45N 31°32' W 073°00'0 0.0
2017-Dec-10 02:30N 31°32' W 073°00'1 1.6
2017-Dec-10 02:00N 31°33' W 073°01'0 0.0
2017-Dec-10 01:45N 31°33' W 073°01'1 1.1
2017-Dec-10 01:00N 31°34' W 073°01'1 4.1
2017-Dec-10 00:45N 31°34' W 073°02'0 0.0
2017-Dec-10 00:30N 31°34' W 073°02'0 0.0
2017-Dec-10 00:15N 31°34' W 073°02'1 2.0
2017-Dec-10 00:00N 31°34' W 073°02'1 4.1
2017-Dec-09 23:45N 31°34' W 073°03'0 0.0
2017-Dec-09 23:15N 31°34' W 073°03'1 2.0
2017-Dec-09 23:00N 31°34' W 073°04'0 0.0
2017-Dec-09 22:30N 31°34' W 073°04'1 2.0
2017-Dec-09 22:15N 31°34' W 073°03'0 0.0
2017-Dec-09 22:00N 31°34' W 073°03'1 4.8
2017-Dec-09 21:45N 31°32' W 073°03'0 0.0
2017-Dec-09 20:15N 31°32' W 073°03'2 6.6
2017-Dec-09 20:00N 31°32' W 073°05'2 1.6
2017-Dec-09 18:30N 31°29' W 073°05'2 9.6
2017-Dec-09 18:15N 31°32' W 073°05'2 1.2
2017-Dec-09 16:15N 31°29' W 073°05'0 0.0
2017-Dec-09 15:30N 31°29' W 073°05'0 0.0
2017-Dec-09 15:15N 31°29' W 073°05'1 1.2
2017-Dec-09 14:45N 31°29' W 073°05'0 0.0
2017-Dec-09 14:30N 31°29' W 073°05'0 0.0
2017-Dec-09 13:45N 31°29' W 073°05'0 0.0
2017-Dec-09 13:30N 31°29' W 073°05'1 2.4
2017-Dec-09 13:15N 31°28' W 073°05'0 0.0
2017-Dec-09 13:00N 31°28' W 073°05'0 0.0
2017-Dec-09 12:45N 31°28' W 073°05'0 0.0
2017-Dec-09 11:45N 31°28' W 073°05'1 3.2
2017-Dec-09 11:30N 31°28' W 073°05'1 3.2
2017-Dec-09 11:15N 31°28' W 073°05'0 0.0
2017-Dec-09 11:00N 31°28' W 073°05'1 1.2
2017-Dec-09 10:30N 31°28' W 073°05'1 2.0
2017-Dec-09 10:15N 31°28' W 073°04'0 0.0
2017-Dec-09 10:00N 31°28' W 073°04'2 7.5
2017-Dec-09 09:45N 31°26' W 073°05'0 0.0
2017-Dec-09 08:45N 31°26' W 073°05'0 0.0
2017-Dec-09 08:30N 31°26' W 073°05'0 0.0
2017-Dec-09 07:00N 31°26' W 073°05'1 0.2
2017-Dec-09 03:00N 31°26' W 073°05'0 0.0
2017-Dec-09 02:15N 31°26' W 073°05'0 0.0
2017-Dec-09 01:30N 31°26' W 073°05'1 2.0
2017-Dec-09 01:15N 31°26' W 073°05'0 0.0
2017-Dec-09 01:00N 31°26' W 073°05'0 0.0
2017-Dec-09 00:45N 31°26' W 073°05'1 2.4
2017-Dec-09 00:30N 31°27' W 073°05'0 0.0
2017-Dec-09 00:15N 31°27' W 073°05'1 0.8
2017-Dec-08 23:15N 31°26' W 073°06'1 1.6
2017-Dec-08 22:45N 31°27' W 073°07'0 0.0
2017-Dec-08 22:30N 31°27' W 073°07'1 1.0
2017-Dec-08 21:15N 31°26' W 073°07'1 1.2
2017-Dec-08 20:15N 31°25' W 073°08'0 0.0
2017-Dec-08 18:45N 31°25' W 073°08'1 2.0
2017-Dec-08 18:30N 31°25' W 073°08'1 0.2
2017-Dec-08 15:45N 31°25' W 073°09'0 0.0
2017-Dec-08 15:00N 31°25' W 073°09'0 0.0
2017-Dec-08 14:45N 31°25' W 073°09'1 1.1
2017-Dec-08 14:00N 31°26' W 073°10'1 4.8
2017-Dec-08 13:45N 31°25' W 073°10'0 0.0
2017-Dec-08 13:15N 31°25' W 073°10'0 0.0
2017-Dec-08 12:00N 31°25' W 073°10'0 0.0
2017-Dec-08 11:45N 31°25' W 073°10'0 0.0
2017-Dec-08 11:30N 31°25' W 073°10'0 0.0
2017-Dec-08 10:30N 31°25' W 073°10'0 0.0
2017-Dec-08 10:15N 31°25' W 073°10'0 0.0
2017-Dec-08 10:00N 31°25' W 073°10'0 0.0
2017-Dec-08 09:45N 31°25' W 073°10'0 0.0
2017-Dec-08 09:00N 31°25' W 073°10'1 2.0
2017-Dec-08 08:45N 31°25' W 073°10'2 1.3
2017-Dec-08 07:15N 31°26' W 073°12'0 0.0
2017-Dec-08 03:30N 31°26' W 073°12'1 3.2
2017-Dec-08 03:15N 31°26' W 073°11'0 0.0
2017-Dec-08 02:45N 31°26' W 073°11'1 2.4
2017-Dec-08 02:30N 31°27' W 073°11'1 1.6
2017-Dec-08 01:45N 31°28' W 073°10'1 4.7
2017-Dec-08 01:30N 31°28' W 073°11'0 0.0
2017-Dec-08 01:15N 31°28' W 073°11'2 7.2
2017-Dec-08 01:00N 31°30' W 073°11'0 0.0
2017-Dec-08 00:45N 31°30' W 073°11'0 0.0
2017-Dec-08 00:00N 31°30' W 073°11'1 1.0
2017-Dec-07 23:30N 31°30' W 073°12'1 2.0
2017-Dec-07 23:15N 31°30' W 073°11'0 0.0
2017-Dec-07 23:00N 31°30' W 073°11'2 1.3
2017-Dec-07 21:45N 31°31' W 073°13'1 4.7
2017-Dec-07 21:30N 31°32' W 073°14'0 0.0
2017-Dec-07 20:30N 31°32' W 073°14'0 0.0
2017-Dec-07 20:15N 31°32' W 073°14'4 2.8
2017-Dec-07 18:45N 31°32' W 073°19'1 0.2
2017-Dec-07 16:00N 31°32' W 073°19'0 0.0
2017-Dec-07 15:30N 31°32' W 073°19'1 4.7
2017-Dec-07 15:15N 31°31' W 073°20'0 0.0
2017-Dec-07 14:30N 31°31' W 073°20'0 0.0
2017-Dec-07 14:15N 31°31' W 073°20'2 3.3
2017-Dec-07 13:45N 31°31' W 073°22'0 0.0
2017-Dec-07 13:30N 31°31' W 073°22'0 0.0
2017-Dec-07 12:15N 31°31' W 073°22'1 4.7
2017-Dec-07 12:00N 31°30' W 073°23'0 0.0
2017-Dec-07 11:00N 31°30' W 073°23'0 0.0
2017-Dec-07 10:45N 31°30' W 073°23'0 0.0
2017-Dec-07 10:30N 31°30' W 073°23'0 0.0
2017-Dec-07 10:15N 31°30' W 073°23'1 1.2
2017-Dec-07 09:15N 31°29' W 073°24'1 2.0
2017-Dec-07 09:00N 31°29' W 073°25'3 2.1
2017-Dec-07 07:30N 31°28' W 073°28'0 0.0
2017-Dec-07 07:15N 31°28' W 073°28'0 0.0
2017-Dec-07 03:00N 31°28' W 073°28'0 0.0
2017-Dec-07 02:45N 31°28' W 073°28'1 1.6
2017-Dec-07 02:00N 31°27' W 073°29'0 0.0
2017-Dec-07 01:15N 31°27' W 073°29'1 0.7
2017-Dec-07 00:30N 31°27' W 073°28'1 4.7
2017-Dec-07 00:15N 31°26' W 073°29'0 0.0
2017-Dec-06 23:45N 31°26' W 073°29'1 3.2
2017-Dec-06 23:30N 31°26' W 073°30'0 0.0
2017-Dec-06 22:15N 31°26' W 073°30'0 0.0
2017-Dec-06 22:00N 31°26' W 073°30'2 1.5
2017-Dec-06 20:45N 31°24' W 073°31'0 0.0
2017-Dec-06 20:30N 31°24' W 073°31'1 0.5
2017-Dec-06 19:00N 31°23' W 073°31'3 1.2
2017-Dec-06 16:30N 31°20' W 073°31'1 1.6
2017-Dec-06 15:45N 31°20' W 073°30'0 0.0
2017-Dec-06 15:30N 31°20' W 073°30'1 0.8
2017-Dec-06 14:45N 31°19' W 073°30'1 1.4
2017-Dec-06 14:00N 31°19' W 073°29'0 0.0
2017-Dec-06 13:45N 31°19' W 073°29'0 0.0
2017-Dec-06 13:00N 31°19' W 073°29'1 1.6
2017-Dec-06 12:30N 31°19' W 073°29'1 4.8
2017-Dec-06 12:15N 31°17' W 073°29'0 0.0
2017-Dec-06 11:30N 31°17' W 073°29'0 0.0
2017-Dec-06 11:15N 31°17' W 073°29'1 1.0
2017-Dec-06 10:45N 31°17' W 073°29'1 0.8
2017-Dec-06 10:00N 31°17' W 073°29'0 0.0
2017-Dec-06 09:45N 31°17' W 073°29'0 0.0
2017-Dec-06 09:30N 31°17' W 073°29'1 4.8
2017-Dec-06 09:15N 31°16' W 073°29'0 0.0
2017-Dec-06 07:45N 31°16' W 073°29'0 0.0
2017-Dec-06 07:30N 31°16' W 073°29'4 0.9
2017-Dec-06 03:15N 31°12' W 073°28'0 0.0
2017-Dec-06 02:30N 31°12' W 073°28'1 2.4
2017-Dec-06 02:15N 31°11' W 073°28'0 0.0
2017-Dec-06 01:45N 31°11' W 073°28'1 4.8
2017-Dec-06 01:30N 31°11' W 073°27'1 1.4
2017-Dec-06 00:45N 31°11' W 073°28'0 0.0
2017-Dec-06 00:30N 31°11' W 073°28'2 8.3
2017-Dec-06 00:15N 31°09' W 073°27'0 0.0
2017-Dec-06 00:00N 31°09' W 073°27'0 0.0
2017-Dec-05 23:45N 31°09' W 073°27'0 0.0
2017-Dec-05 22:45N 31°09' W 073°27'2 7.5
2017-Dec-05 22:30N 31°07' W 073°26'0 0.0
2017-Dec-05 22:15N 31°07' W 073°26'0 0.0
2017-Dec-05 22:00N 31°07' W 073°26'0 0.0
2017-Dec-05 21:00N 31°07' W 073°26'0 0.0
2017-Dec-05 20:45N 31°07' W 073°26'4 2.9
2017-Dec-05 19:15N 31°04' W 073°23'0 0.0
2017-Dec-05 19:00N 31°04' W 073°23'1 0.4
2017-Dec-05 16:00N 31°03' W 073°22'0 0.0
2017-Dec-05 15:00N 31°03' W 073°22'0 0.0
2017-Dec-05 14:30N 31°03' W 073°22'1 3.2
2017-Dec-05 14:15N 31°04' W 073°22'1 4.8
2017-Dec-05 14:00N 31°02' W 073°22'0 0.0
2017-Dec-05 13:30N 31°02' W 073°22'0 0.0
2017-Dec-05 13:15N 31°02' W 073°22'1 2.1
2017-Dec-05 13:00N 31°02' W 073°21'0 0.0
2017-Dec-05 12:45N 31°02' W 073°21'1 2.1
2017-Dec-05 12:30N 31°02' W 073°22'2 6.3
2017-Dec-05 12:15N 31°01' W 073°20'0 0.0
2017-Dec-05 12:00N 31°01' W 073°20'0 0.0
2017-Dec-05 11:15N 31°01' W 073°20'0 0.0
2017-Dec-05 11:00N 31°01' W 073°20'1 2.1
2017-Dec-05 10:45N 31°01' W 073°20'1 3.2
2017-Dec-05 10:30N 31°01' W 073°19'0 0.0
2017-Dec-05 10:15N 31°01' W 073°19'1 0.7
2017-Dec-05 09:30N 31°01' W 073°19'0 0.0
2017-Dec-05 08:45N 31°01' W 073°19'0 0.0
2017-Dec-05 08:00N 31°01' W 073°19'311.4
2017-Dec-05 07:45N 30°58' W 073°17'0 0.0
2017-Dec-05 03:30N 30°58' W 073°17'1 1.4
2017-Dec-05 02:45N 30°58' W 073°16'0 0.0
2017-Dec-05 02:30N 30°58' W 073°16'0 0.0
2017-Dec-05 02:00N 30°58' W 073°16'0 0.0
2017-Dec-05 01:45N 30°58' W 073°16'1 1.6
2017-Dec-05 01:15N 30°58' W 073°15'1 2.1
2017-Dec-05 01:00N 30°58' W 073°14'0 0.0
2017-Dec-05 00:45N 30°58' W 073°14'0 0.0
2017-Dec-05 00:30N 30°58' W 073°14'0 0.0
2017-Dec-05 00:15N 30°58' W 073°14'1 3.2
2017-Dec-05 00:00N 30°57' W 073°14'0 0.0
2017-Dec-04 23:15N 30°57' W 073°14'0 0.0
2017-Dec-04 23:00N 30°57' W 073°14'1 2.1
2017-Dec-04 22:45N 30°57' W 073°13'0 0.0
2017-Dec-04 22:30N 30°57' W 073°13'1 2.1
2017-Dec-04 22:15N 30°57' W 073°13'0 0.0
2017-Dec-04 21:30N 30°57' W 073°13'0 0.0
2017-Dec-04 21:15N 30°57' W 073°13'0 0.0
2017-Dec-04 21:00N 30°57' W 073°13'1 0.3
2017-Dec-04 19:30N 30°57' W 073°12'1 4.1
2017-Dec-04 19:15N 30°57' W 073°11'0 0.0
2017-Dec-04 16:30N 30°57' W 073°11'1 2.1
2017-Dec-04 16:15N 30°57' W 073°11'1 0.7
2017-Dec-04 15:30N 30°57' W 073°11'0 0.0
2017-Dec-04 14:45N 30°57' W 073°11'0 0.0
2017-Dec-04 14:30N 30°57' W 073°11'0 0.0
2017-Dec-04 14:15N 30°57' W 073°11'0 0.0
2017-Dec-04 13:45N 30°57' W 073°11'0 0.0
2017-Dec-04 13:00N 30°57' W 073°11'0 0.0
2017-Dec-04 12:45N 30°57' W 073°11'0 0.0
2017-Dec-04 12:30N 30°57' W 073°11'0 0.0
2017-Dec-04 11:45N 30°57' W 073°11'0 0.0
2017-Dec-04 11:30N 30°57' W 073°11'0 0.0
2017-Dec-04 11:00N 30°57' W 073°11'0 0.0
2017-Dec-04 10:45N 30°57' W 073°11'0 0.0
2017-Dec-04 10:00N 30°57' W 073°11'1 2.1
2017-Dec-04 09:45N 30°57' W 073°11'0 0.0
2017-Dec-04 09:30N 30°57' W 073°11'1 4.1
2017-Dec-04 09:15N 30°57' W 073°10'1 4.1
2017-Dec-04 09:00N 30°57' W 073°11'2 2.0
2017-Dec-04 08:00N 30°56' W 073°13'1 0.1
2017-Dec-04 03:00N 30°56' W 073°13'0 0.0
2017-Dec-04 02:30N 30°56' W 073°13'0 0.0
2017-Dec-04 02:15N 30°56' W 073°13'0 0.0
2017-Dec-04 01:30N 30°56' W 073°13'0 0.0
2017-Dec-04 01:15N 30°56' W 073°13'0 0.0
2017-Dec-04 00:45N 30°56' W 073°13'1 2.4
2017-Dec-04 00:30N 30°55' W 073°13'0 0.0
2017-Dec-04 00:15N 30°55' W 073°13'1 2.1
2017-Dec-04 00:00N 30°55' W 073°13'0 0.0
2017-Dec-03 23:45N 30°55' W 073°13'0 0.0
2017-Dec-03 23:15N 30°55' W 073°13'1 1.1
2017-Dec-03 22:30N 30°55' W 073°13'0 0.0
2017-Dec-03 22:00N 30°55' W 073°13'0 0.0
2017-Dec-03 21:15N 30°55' W 073°13'1 0.4
2017-Dec-03 19:45N 30°54' W 073°13'0 0.0
2017-Dec-03 19:30N 30°54' W 073°13'1 0.2
2017-Dec-03 15:45N 30°53' W 073°13'0 0.0
2017-Dec-03 15:00N 30°53' W 073°13'0 0.0
2017-Dec-03 14:15N 30°53' W 073°13'1 4.8
2017-Dec-03 14:00N 30°53' W 073°14'0 0.0
2017-Dec-03 13:30N 30°53' W 073°14'0 0.0
2017-Dec-03 13:15N 30°53' W 073°14'0 0.0
2017-Dec-03 13:00N 30°53' W 073°14'1 4.1
2017-Dec-03 12:45N 30°53' W 073°15'0 0.0
2017-Dec-03 12:00N 30°53' W 073°15'1 1.6
2017-Dec-03 11:30N 30°52' W 073°16'0 0.0
2017-Dec-03 11:15N 30°52' W 073°16'0 0.0
2017-Dec-03 11:00N 30°52' W 073°16'0 0.0
2017-Dec-03 10:30N 30°52' W 073°16'1 2.4
2017-Dec-03 10:15N 30°52' W 073°16'0 0.0
2017-Dec-03 10:00N 30°52' W 073°16'1 3.2
2017-Dec-03 09:45N 30°51' W 073°16'0 0.0
2017-Dec-03 09:30N 30°51' W 073°16'0 0.0
2017-Dec-03 08:15N 30°51' W 073°16'2 7.2
2017-Dec-03 08:00N 30°49' W 073°16'0 0.0
2017-Dec-03 03:30N 30°49' W 073°16'0 0.0
2017-Dec-03 03:15N 30°49' W 073°16'0 0.0
2017-Dec-03 02:45N 30°49' W 073°16'0 0.0
2017-Dec-03 02:30N 30°49' W 073°16'1 0.8
2017-Dec-03 01:45N 30°49' W 073°16'0 0.0
2017-Dec-03 01:30N 30°49' W 073°16'1 1.0
2017-Dec-03 01:00N 30°49' W 073°16'1 1.2
2017-Dec-03 00:30N 30°48' W 073°16'1 2.4
2017-Dec-03 00:15N 30°49' W 073°16'0 0.0
2017-Dec-03 00:00N 30°49' W 073°16'1 0.4
2017-Dec-02 22:45N 30°49' W 073°15'0 0.0
2017-Dec-02 22:30N 30°49' W 073°15'0 0.0
2017-Dec-02 22:00N 30°49' W 073°15'0 0.0
2017-Dec-02 21:30N 30°49' W 073°15'0 0.0
2017-Dec-02 21:15N 30°49' W 073°15'2 1.0
2017-Dec-02 19:45N 30°49' W 073°13'0 0.0
2017-Dec-02 16:00N 30°49' W 073°13'0 0.0
2017-Dec-02 15:30N 30°49' W 073°13'0 0.0
2017-Dec-02 15:15N 30°49' W 073°13'0 0.0
2017-Dec-02 14:30N 30°49' W 073°13'0 0.0
2017-Dec-02 14:15N 30°49' W 073°13'1 1.0
2017-Dec-02 13:45N 30°49' W 073°13'0 0.0
2017-Dec-02 13:30N 30°49' W 073°13'1 1.0
2017-Dec-02 13:00N 30°49' W 073°13'0 0.0
2017-Dec-02 12:45N 30°49' W 073°13'0 0.0
2017-Dec-02 12:30N 30°49' W 073°13'0 0.0
2017-Dec-02 12:15N 30°49' W 073°13'0 0.0
2017-Dec-02 12:00N 30°49' W 073°13'0 0.0
2017-Dec-02 11:45N 30°49' W 073°13'0 0.0
2017-Dec-02 11:30N 30°49' W 073°13'0 0.0
2017-Dec-02 11:15N 30°49' W 073°13'0 0.0
2017-Dec-02 10:45N 30°49' W 073°13'1 1.0
2017-Dec-02 10:15N 30°49' W 073°13'1 2.1
2017-Dec-02 10:00N 30°49' W 073°13'1 0.5
2017-Dec-02 08:30N 30°48' W 073°13'0 0.0
2017-Dec-02 08:15N 30°48' W 073°13'0 0.0
2017-Dec-02 03:00N 30°48' W 073°13'1 0.7
2017-Dec-02 02:15N 30°48' W 073°13'1 4.1
2017-Dec-02 02:00N 30°48' W 073°12'0 0.0
2017-Dec-02 01:30N 30°48' W 073°12'1 2.1
2017-Dec-02 01:15N 30°48' W 073°11'1 1.0
2017-Dec-02 00:45N 30°48' W 073°11'0 0.0
2017-Dec-02 00:30N 30°48' W 073°11'0 0.0
2017-Dec-02 00:15N 30°48' W 073°11'0 0.0
2017-Dec-02 00:00N 30°48' W 073°11'1 0.5
2017-Dec-01 23:00N 30°48' W 073°10'0 0.0
2017-Dec-01 22:45N 30°48' W 073°10'0 0.0
2017-Dec-01 22:30N 30°48' W 073°10'2 9.5
2017-Dec-01 22:15N 30°49' W 073°08'0 0.0
2017-Dec-01 21:45N 30°49' W 073°08'0 0.0
2017-Dec-01 21:15N 30°49' W 073°08'0 0.0
2017-Dec-01 20:00N 30°49' W 073°08'0 0.0
2017-Dec-01 19:45N 30°49' W 073°08'0 0.0
2017-Dec-01 18:15N 30°49' W 073°08'  

Dump ship's entire track history